Time;durP1;ratioP1;P1;durP2;ratioP2;P2;SDS_P1;SDS_P2;PMS_P1;PMS_P2;Temp;Humidity;BMP_temperature;BMP_pressure;BME280_temperature;BME280_humidity;BME280_pressure;Samples;Min_cycle;Max_cycle;Signal;HPM_P1;HPM_P2
2022/02/22 00:02:17;;;;;;;3.45;3.13;;;;;;;4.51;100.00;95951.19;4993224;28;20120;-59
2022/02/22 00:04:45;;;;;;;3.75;3.17;;;;;;;4.30;100.00;95963.28;4987443;28;20074;-59
2022/02/22 00:07:15;;;;;;;7.82;3.33;;;;;;;4.34;100.00;95963.91;4994698;28;20070;-60
2022/02/22 00:09:44;;;;;;;3.28;2.97;;;;;;;4.46;100.00;95969.00;4990700;28;20081;-62
2022/02/22 00:12:12;;;;;;;5.40;3.40;;;;;;;4.41;100.00;95965.91;4984339;28;20081;-59
2022/02/22 00:14:43;;;;;;;5.93;3.10;;;;;;;4.43;100.00;95974.44;4990408;28;20153;-58
2022/02/22 00:17:12;;;;;;;5.88;3.50;;;;;;;4.48;100.00;95971.50;4994434;28;20626;-57
2022/02/22 00:19:41;;;;;;;3.47;3.17;;;;;;;4.40;100.00;95961.63;4986345;28;20460;-58
2022/02/22 00:22:10;;;;;;;5.10;3.50;;;;;;;4.47;100.00;95973.28;4972875;28;20460;-57
2022/02/22 00:24:39;;;;;;;4.28;3.38;;;;;;;4.43;100.00;95966.63;4970489;28;20062;-59
2022/02/22 00:27:08;;;;;;;4.72;3.53;;;;;;;4.52;100.00;95968.53;4969394;28;20065;-58
2022/02/22 00:29:37;;;;;;;3.30;3.00;;;;;;;4.43;100.00;95971.00;4975272;28;20151;-61
2022/02/22 00:32:06;;;;;;;4.78;3.42;;;;;;;4.44;100.00;95975.28;4972350;28;20089;-61
2022/02/22 00:34:34;;;;;;;4.90;3.10;;;;;;;4.35;100.00;95976.00;4965190;28;20755;-54
2022/02/22 00:37:03;;;;;;;5.22;3.25;;;;;;;4.41;100.00;95968.53;4969205;28;20066;-60
2022/02/22 00:39:31;;;;;;;4.28;3.88;;;;;;;4.55;100.00;95982.28;4964939;28;20089;-56
2022/02/22 00:42:01;;;;;;;3.38;3.03;;;;;;;4.53;100.00;95972.78;4965106;28;20102;-57
2022/02/22 00:44:29;;;;;;;4.33;3.10;;;;;;;4.71;100.00;95977.50;4963838;28;20823;-59
2022/02/22 00:46:58;;;;;;;4.57;3.10;;;;;;;4.68;100.00;95981.22;4988134;28;20509;-58
2022/02/22 00:49:26;;;;;;;4.57;3.65;;;;;;;4.73;100.00;95983.47;4991189;28;20088;-58
2022/02/22 00:51:55;;;;;;;3.30;3.00;;;;;;;4.67;100.00;95987.38;4988927;28;20068;-57
2022/02/22 00:54:23;;;;;;;3.60;3.10;;;;;;;4.73;100.00;96001.75;4986427;28;20069;-61
2022/02/22 00:56:55;;;;;;;3.58;3.28;;;;;;;4.69;100.00;96001.16;4992751;28;20077;-57
2022/02/22 00:59:25;;;;;;;5.05;3.13;;;;;;;4.70;100.00;96010.63;4987485;28;20086;-59
2022/02/22 01:01:56;;;;;;;4.40;2.80;;;;;;;4.71;100.00;96017.53;4987412;28;20074;-60
2022/02/22 01:04:24;;;;;;;6.75;3.80;;;;;;;4.89;100.00;96012.66;4984837;28;20082;-59
2022/02/22 01:06:52;;;;;;;2.90;2.70;;;;;;;4.80;100.00;96018.59;4976481;28;20067;-60
2022/02/22 01:09:21;;;;;;;4.05;3.03;;;;;;;4.82;100.00;96008.00;4965375;28;20473;-58
2022/02/22 01:11:49;;;;;;;5.15;3.03;;;;;;;4.76;100.00;96007.56;4965353;28;20073;-60
2022/02/22 01:14:18;;;;;;;3.40;3.10;;;;;;;4.94;100.00;96014.91;4965726;28;20089;-60
2022/02/22 01:16:48;;;;;;;4.15;3.25;;;;;;;4.88;100.00;96016.19;4968959;28;20086;-55
2022/02/22 01:19:16;;;;;;;4.03;2.95;;;;;;;4.77;100.00;96005.75;4984075;28;20081;-56
2022/02/22 01:21:45;;;;;;;3.70;3.10;;;;;;;4.96;100.00;96007.78;4986609;28;20081;-58
2022/02/22 01:24:13;;;;;;;6.75;3.40;;;;;;;5.02;100.00;96006.44;4992731;28;20077;-57
2022/02/22 01:26:42;;;;;;;3.40;3.10;;;;;;;4.90;100.00;96016.91;4985686;28;20073;-62
2022/02/22 01:29:10;;;;;;;3.13;2.90;;;;;;;4.87;100.00;96017.16;4989236;28;20081;-62
2022/02/22 01:31:38;;;;;;;3.38;3.08;;;;;;;4.82;100.00;96019.31;4987300;28;20093;-55
2022/02/22 01:34:09;;;;;;;4.07;3.00;;;;;;;4.88;100.00;96017.97;4988977;28;20096;-59
2022/02/22 01:36:37;;;;;;;4.70;3.20;;;;;;;4.94;100.00;96022.72;4984636;28;20072;-61
2022/02/22 01:39:06;;;;;;;5.97;3.30;;;;;;;4.91;100.00;96021.19;4991745;28;20115;-60
2022/02/22 01:41:39;;;;;;;3.97;3.45;;;;;;;4.86;100.00;96023.34;4987266;28;20078;-55
2022/02/22 01:44:07;;;;;;;5.28;3.30;;;;;;;4.80;100.00;96026.44;4987918;28;20086;-58
2022/02/22 01:46:36;;;;;;;6.47;3.85;;;;;;;4.84;100.00;96022.63;4987502;28;20085;-61
2022/02/22 01:49:04;;;;;;;4.43;3.08;;;;;;;4.85;100.00;96031.28;4990845;28;20069;-57
2022/02/22 01:51:37;;;;;;;5.97;3.88;;;;;;;4.81;100.00;96027.25;4976596;28;20744;-57
2022/02/22 01:54:06;;;;;;;5.32;3.30;;;;;;;4.80;100.00;96030.81;4966086;28;20066;-62
2022/02/22 01:56:36;;;;;;;5.78;3.40;;;;;;;4.85;100.00;96031.28;4985138;28;20093;-56
2022/02/22 01:59:04;;;;;;;3.13;2.93;;;;;;;4.78;100.00;96035.31;4988524;28;20085;-57
2022/02/22 02:01:33;;;;;;;3.30;3.00;;;;;;;4.72;100.00;96044.50;4988514;28;20946;-58
2022/02/22 02:04:05;;;;;;;5.07;3.45;;;;;;;4.81;100.00;96035.91;4985785;28;20066;-59
2022/02/22 02:06:36;;;;;;;5.93;3.08;;;;;;;4.61;100.00;96034.88;4989830;28;20082;-59
2022/02/22 02:09:05;;;;;;;5.20;3.30;;;;;;;4.85;100.00;96034.75;4992813;28;20069;-57
2022/02/22 02:11:43;;;;;;;3.92;3.22;;;;;;;4.75;100.00;96026.81;4988281;28;20089;-59
2022/02/22 02:14:12;;;;;;;3.67;3.10;;;;;;;4.78;100.00;96033.53;4989365;28;20629;-55
2022/02/22 02:16:41;;;;;;;4.25;3.00;;;;;;;4.76;100.00;96028.44;4988349;28;20089;-60
2022/02/22 02:19:10;;;;;;;6.95;3.20;;;;;;;5.01;100.00;96047.44;4977195;28;20085;-60
2022/02/22 02:21:41;;;;;;;5.05;3.30;;;;;;;5.05;100.00;96050.63;4986517;28;20072;-56
2022/02/22 02:24:15;;;;;;;4.88;3.28;;;;;;;4.99;100.00;96050.19;4987313;28;20077;-61
2022/02/22 02:26:44;;;;;;;4.28;3.20;;;;;;;5.02;100.00;96048.25;4982580;28;20071;-58
2022/02/22 02:29:14;;;;;;;5.32;3.00;;;;;;;5.06;100.00;96060.97;4964669;28;20082;-59
2022/02/22 02:31:44;;;;;;;4.00;3.10;;;;;;;5.00;100.00;96046.59;4989934;28;20471;-58
2022/02/22 02:34:14;;;;;;;4.35;3.30;;;;;;;5.12;100.00;96057.03;4988854;28;20069;-61
2022/02/22 02:36:44;;;;;;;5.85;3.20;;;;;;;4.95;100.00;96048.72;4983713;28;20529;-64
2022/02/22 02:39:14;;;;;;;8.55;3.13;;;;;;;5.08;100.00;96066.91;4990636;28;20472;-61
2022/02/22 02:41:44;;;;;;;3.30;3.00;;;;;;;5.09;100.00;96050.25;4986858;28;20073;-60
2022/02/22 02:44:14;;;;;;;4.10;3.03;;;;;;;5.17;100.00;96053.13;4991833;28;20080;-58
2022/02/22 02:46:43;;;;;;;4.07;3.05;;;;;;;5.18;100.00;96046.09;4965827;28;21373;-60
2022/02/22 02:49:13;;;;;;;4.43;4.00;;;;;;;5.10;100.00;96056.34;4983799;28;20069;-59
2022/02/22 02:51:42;;;;;;;6.07;2.97;;;;;;;5.18;100.00;96074.84;4988893;28;20073;-58
2022/02/22 02:54:11;;;;;;;3.47;3.17;;;;;;;5.11;100.00;96077.13;4985385;28;20074;-62
2022/02/22 02:56:41;;;;;;;7.28;3.50;;;;;;;5.07;100.00;96088.75;4988423;28;20069;-59
2022/02/22 02:59:11;;;;;;;4.07;3.35;;;;;;;5.12;100.00;96076.16;4989415;28;20081;-53
2022/02/22 03:01:42;;;;;;;3.33;3.03;;;;;;;5.04;100.00;96075.94;4984493;28;20069;-59
2022/02/22 03:04:12;;;;;;;5.85;3.58;;;;;;;5.10;100.00;96085.09;4989039;28;20062;-56
2022/02/22 03:06:41;;;;;;;3.08;2.80;;;;;;;5.08;100.00;96086.97;4991577;28;20524;-61
2022/02/22 03:09:09;;;;;;;6.55;2.90;;;;;;;4.99;100.00;96091.16;4985472;28;20066;-60
2022/02/22 03:11:38;;;;;;;3.40;3.10;;;;;;;5.04;100.00;96088.16;4986950;28;20083;-57
2022/02/22 03:14:08;;;;;;;2.88;2.67;;;;;;;5.15;100.00;96086.38;4991442;28;20085;-57
2022/02/22 03:16:39;;;;;;;5.15;3.17;;;;;;;5.20;100.00;96093.88;4990325;28;20074;-57
2022/02/22 03:19:08;;;;;;;3.88;2.85;;;;;;;5.32;100.00;96095.50;4992652;28;20061;-59
2022/02/22 03:21:36;;;;;;;3.50;3.05;;;;;;;5.13;100.00;96100.53;4989240;28;20073;-61
2022/02/22 03:24:05;;;;;;;3.05;2.85;;;;;;;4.88;100.00;96118.09;4993826;28;20065;-59
2022/02/22 03:26:35;;;;;;;3.15;2.95;;;;;;;4.85;100.00;96107.03;4993571;28;20085;-57
2022/02/22 03:29:04;;;;;;;4.13;3.20;;;;;;;4.82;100.00;96118.56;4990080;28;20081;-60
2022/02/22 03:31:33;;;;;;;6.63;3.08;;;;;;;4.72;100.00;96121.06;4991413;28;20077;-59
2022/02/22 03:34:02;;;;;;;5.30;3.67;;;;;;;4.86;100.00;96122.63;4971187;28;20062;-60
2022/02/22 03:36:30;;;;;;;4.43;3.28;;;;;;;4.95;100.00;96150.63;4975746;28;20497;-59
2022/02/22 03:38:59;;;;;;;4.28;3.20;;;;;;;5.07;100.00;96192.47;4980238;28;20071;-59
2022/02/22 03:41:28;;;;;;;4.25;3.30;;;;;;;2.93;100.00;96201.81;4972480;28;20481;-57
2022/02/22 03:43:56;;;;;;;6.70;3.97;;;;;;;2.27;100.00;96200.97;4967811;28;20079;-61
2022/02/22 03:46:25;;;;;;;3.95;3.63;;;;;;;2.10;100.00;96194.28;4964961;28;20067;-64
2022/02/22 03:48:55;;;;;;;3.33;3.10;;;;;;;2.21;100.00;96206.59;4969612;28;20077;-64
2022/02/22 03:51:28;;;;;;;4.97;3.67;;;;;;;2.17;100.00;96204.25;4969380;28;20757;-63
2022/02/22 03:53:56;;;;;;;3.47;3.28;;;;;;;2.23;100.00;96206.47;4964063;28;20071;-61
2022/02/22 03:56:25;;;;;;;4.00;3.17;;;;;;;2.30;100.00;96205.97;4966937;28;20086;-62
2022/02/22 03:58:53;;;;;;;7.35;3.85;;;;;;;2.33;100.00;96221.38;4996966;28;20097;-61
2022/02/22 04:01:22;;;;;;;3.78;3.50;;;;;;;2.36;100.00;96223.78;4990304;28;20065;-58
2022/02/22 04:03:50;;;;;;;5.38;3.70;;;;;;;2.48;100.00;96223.91;4994593;28;20069;-62
2022/02/22 04:06:20;;;;;;;7.90;3.75;;;;;;;2.50;100.00;96235.88;4990210;28;20084;-63
2022/02/22 04:08:48;;;;;;;4.97;4.30;;;;;;;2.55;100.00;96240.81;4991794;28;20065;-60
2022/02/22 04:11:17;;;;;;;5.85;4.22;;;;;;;2.53;100.00;96240.06;4992944;28;20120;-60
2022/02/22 04:13:47;;;;;;;8.60;4.30;;;;;;;2.55;100.00;96243.41;4971125;28;20082;-64
2022/02/22 04:16:16;;;;;;;8.90;4.00;;;;;;;2.55;100.00;96256.44;4986292;28;20076;-60
2022/02/22 04:18:44;;;;;;;11.13;4.18;;;;;;;2.61;100.00;96256.00;4996407;28;20077;-58
2022/02/22 04:21:13;;;;;;;5.65;4.00;;;;;;;2.63;100.00;96266.31;4991780;28;20068;-62
2022/02/22 04:23:43;;;;;;;10.43;4.63;;;;;;;2.74;100.00;96271.66;4991016;28;20073;-61
2022/02/22 04:26:11;;;;;;;10.98;4.55;;;;;;;2.81;100.00;96272.91;4989883;28;20176;-60
2022/02/22 04:28:40;;;;;;;5.10;4.28;;;;;;;2.96;100.00;96287.53;4992337;28;20081;-63
2022/02/22 04:31:09;;;;;;;5.60;4.18;;;;;;;3.12;100.00;96287.31;4989391;28;20073;-65
2022/02/22 04:33:37;;;;;;;7.78;4.43;;;;;;;3.09;100.00;96293.56;4988591;28;20513;-64
2022/02/22 04:36:06;;;;;;;5.53;3.70;;;;;;;3.17;100.00;96308.72;4994666;28;20358;-64
2022/02/22 04:38:34;;;;;;;7.35;4.00;;;;;;;3.32;100.00;96309.44;4989943;28;20225;-64
2022/02/22 04:41:04;;;;;;;9.38;3.72;;;;;;;3.29;100.00;96309.66;4993741;28;20089;-67
2022/02/22 04:43:32;;;;;;;6.15;4.22;;;;;;;3.24;100.00;96306.53;4988303;28;20088;-61
2022/02/22 04:46:01;;;;;;;8.80;4.20;;;;;;;3.26;100.00;96315.06;4986786;28;20082;-65
2022/02/22 04:48:29;;;;;;;4.00;3.70;;;;;;;3.26;100.00;96315.91;4989951;28;20073;-62
2022/02/22 04:50:57;;;;;;;4.55;3.63;;;;;;;3.17;100.00;96326.13;4985727;28;20148;-61
2022/02/22 04:53:26;;;;;;;4.43;3.97;;;;;;;3.20;100.00;96323.28;4988258;28;20094;-55
2022/02/22 04:55:54;;;;;;;5.82;3.58;;;;;;;3.22;100.00;96329.25;4989719;28;20069;-60
2022/02/22 04:58:24;;;;;;;7.07;3.72;;;;;;;3.41;100.00;96334.91;4984327;28;20066;-54
2022/02/22 05:00:53;;;;;;;5.45;4.50;;;;;;;3.43;100.00;96343.44;4986550;28;20081;-58
2022/02/22 05:03:21;;;;;;;4.55;3.95;;;;;;;3.45;100.00;96341.56;4987821;28;20065;-59
2022/02/22 05:05:50;;;;;;;8.65;4.13;;;;;;;3.42;100.00;96341.78;4984471;28;20058;-62
2022/02/22 05:08:18;;;;;;;3.90;3.45;;;;;;;3.45;100.00;96348.56;4985505;28;20086;-61
2022/02/22 05:10:47;;;;;;;7.47;4.18;;;;;;;3.44;100.00;96349.47;4989201;28;20082;-56
2022/02/22 05:13:15;;;;;;;7.72;3.60;;;;;;;3.48;100.00;96346.56;4985033;28;20070;-57
2022/02/22 05:15:45;;;;;;;5.50;3.83;;;;;;;3.55;100.00;96360.03;4986491;28;20074;-55
2022/02/22 05:18:14;;;;;;;4.15;3.75;;;;;;;3.52;100.00;96363.66;4987637;28;20061;-54
2022/02/22 05:20:54;;;;;;;8.50;3.55;;;;;;;3.52;100.00;96353.25;4987641;28;20066;-53
2022/02/22 05:23:23;;;;;;;3.72;3.42;;;;;;;3.51;100.00;96372.44;4987226;28;20093;-54
2022/02/22 05:25:52;;;;;;;4.78;3.50;;;;;;;3.46;100.00;96376.28;4986979;28;20074;-52
2022/02/22 05:28:22;;;;;;;5.45;4.15;;;;;;;3.40;100.00;96372.31;4969211;28;20070;-54
2022/02/22 05:30:53;;;;;;;6.43;4.05;;;;;;;3.33;100.00;96384.91;4963667;28;20066;-56
2022/02/22 05:33:22;;;;;;;4.65;4.25;;;;;;;3.30;100.00;96382.53;4974907;28;20077;-56
2022/02/22 05:35:52;;;;;;;6.70;4.03;;;;;;;3.30;100.00;96385.13;4980982;28;20070;-53
2022/02/22 05:38:21;;;;;;;9.57;4.43;;;;;;;3.28;100.00;96399.19;4966170;28;20078;-56
2022/02/22 05:40:49;;;;;;;7.63;4.07;;;;;;;3.20;100.00;96388.44;4987844;28;20082;-59
2022/02/22 05:43:18;;;;;;;7.50;4.03;;;;;;;3.14;100.00;96389.69;4968075;28;20070;-61
2022/02/22 05:45:46;;;;;;;7.10;4.00;;;;;;;3.21;100.00;96397.94;4982150;28;20073;-58
2022/02/22 05:48:16;;;;;;;7.95;3.78;;;;;;;3.13;100.00;96402.78;4988678;28;20085;-58
2022/02/22 05:50:45;;;;;;;6.75;4.00;;;;;;;3.23;100.00;96383.00;4993920;28;20077;-55
2022/02/22 05:53:13;;;;;;;5.05;4.15;;;;;;;3.15;100.00;96400.94;4989653;28;20108;-61
2022/02/22 05:55:43;;;;;;;7.10;4.10;;;;;;;3.30;100.00;96399.91;4988952;28;20525;-61
2022/02/22 05:58:11;;;;;;;5.32;3.83;;;;;;;3.21;100.00;96410.97;4971554;28;20065;-58
2022/02/22 06:00:40;;;;;;;6.60;4.20;;;;;;;3.32;100.00;96411.91;4969256;28;20074;-61
2022/02/22 06:03:08;;;;;;;4.35;3.45;;;;;;;3.29;100.00;96416.50;4964734;28;20082;-59
2022/02/22 06:05:39;;;;;;;4.15;3.78;;;;;;;3.32;100.00;96408.47;4963863;28;20078;-62
2022/02/22 06:08:07;;;;;;;6.97;4.25;;;;;;;3.43;100.00;96420.78;4975715;28;20094;-59
2022/02/22 06:10:35;;;;;;;9.07;3.85;;;;;;;3.39;100.00;96417.56;4984490;28;20081;-64
2022/02/22 06:13:04;;;;;;;4.93;3.97;;;;;;;3.49;100.00;96415.19;4984762;28;20073;-63
2022/02/22 06:15:32;;;;;;;5.60;3.60;;;;;;;3.46;100.00;96438.84;4975098;28;20074;-64
2022/02/22 06:18:01;;;;;;;3.75;3.30;;;;;;;3.43;100.00;96439.88;4977532;28;20073;-63
2022/02/22 06:20:32;;;;;;;8.57;3.40;;;;;;;3.46;100.00;96431.84;4986047;28;20089;-63
2022/02/22 06:23:01;;;;;;;5.47;3.55;;;;;;;3.49;100.00;96444.69;4986421;28;20078;-61
2022/02/22 06:25:30;;;;;;;6.90;3.75;;;;;;;3.50;100.00;96453.34;4989664;28;20069;-61
2022/02/22 06:27:59;;;;;;;8.13;4.22;;;;;;;3.58;100.00;96453.69;4986202;28;20537;-65
2022/02/22 06:30:27;;;;;;;6.03;3.63;;;;;;;3.64;100.00;96449.81;4976444;28;20553;-64
2022/02/22 06:32:56;;;;;;;8.10;3.53;;;;;;;3.57;100.00;96455.44;4967470;28;20062;-62
2022/02/22 06:35:36;;;;;;;3.75;3.42;;;;;;;3.62;100.00;96460.34;4965346;28;20521;-64
2022/02/22 06:38:06;;;;;;;8.18;3.97;;;;;;;3.66;100.00;96467.03;4965179;28;20086;-64
2022/02/22 06:40:36;;;;;;;8.02;3.20;;;;;;;3.68;100.00;96465.19;4957576;28;20074;-64
2022/02/22 06:43:04;;;;;;;9.77;3.88;;;;;;;3.70;100.00;96468.50;4968189;28;20066;-64
2022/02/22 06:45:33;;;;;;;3.50;3.20;;;;;;;3.73;100.00;96475.28;4965064;28;20077;-65
2022/02/22 06:48:01;;;;;;;4.38;3.45;;;;;;;3.87;100.00;96474.38;4963189;28;20074;-63
2022/02/22 06:50:30;;;;;;;10.98;3.40;;;;;;;3.84;100.00;96483.22;4969188;28;20090;-65
2022/02/22 06:52:58;;;;;;;5.43;3.78;;;;;;;3.87;100.00;96490.00;4990563;28;20089;-64
2022/02/22 06:55:28;;;;;;;6.95;3.33;;;;;;;3.92;100.00;96498.34;4971603;28;20070;-65
2022/02/22 06:58:03;;;;;;;6.20;3.75;;;;;;;3.87;100.00;96490.00;4968895;28;20070;-65
2022/02/22 07:00:32;;;;;;;5.80;3.25;;;;;;;3.88;100.00;96500.34;4967356;28;20647;-64
2022/02/22 07:03:00;;;;;;;6.20;3.83;;;;;;;3.87;100.00;96519.53;4973069;28;20066;-63
2022/02/22 07:05:29;;;;;;;3.85;2.97;;;;;;;3.92;100.00;96512.25;4963160;28;20555;-65
2022/02/22 07:07:57;;;;;;;3.75;3.38;;;;;;;3.87;100.00;96514.31;4968325;28;20071;-65
2022/02/22 07:10:27;;;;;;;5.90;5.25;;;;;;;3.88;100.00;96520.38;4985428;28;20062;-63
2022/02/22 07:12:56;;;;;;;3.53;3.25;;;;;;;3.88;100.00;96515.16;4976928;28;20073;-63
2022/02/22 07:15:26;;;;;;;3.95;3.25;;;;;;;3.86;100.00;96517.88;4975785;28;20484;-62
2022/02/22 07:17:55;;;;;;;4.50;3.83;;;;;;;3.90;100.00;96521.13;4981019;28;20062;-63
2022/02/22 07:20:25;;;;;;;6.28;3.80;;;;;;;3.94;100.00;96518.19;4969396;28;20089;-64
2022/02/22 07:22:56;;;;;;;5.22;3.28;;;;;;;4.03;100.00;96514.97;4968912;28;20089;-64
2022/02/22 07:25:25;;;;;;;7.93;3.80;;;;;;;4.07;100.00;96543.47;4961331;28;20117;-64
2022/02/22 07:27:54;;;;;;;9.48;3.85;;;;;;;4.07;100.00;96530.44;4971278;28;20070;-63
2022/02/22 07:30:23;;;;;;;5.25;3.90;;;;;;;4.16;100.00;96559.34;4968033;28;20658;-64
2022/02/22 07:32:55;;;;;;;7.38;3.65;;;;;;;4.26;100.00;96564.78;4973342;28;20058;-64
2022/02/22 07:35:24;;;;;;;5.55;3.78;;;;;;;4.23;100.00;96573.66;4990629;28;20093;-64
2022/02/22 07:37:53;;;;;;;6.32;3.72;;;;;;;4.20;100.00;96568.66;4991098;28;20081;-63
2022/02/22 07:40:22;;;;;;;5.00;3.78;;;;;;;4.11;100.00;96569.25;4995512;28;20058;-63
2022/02/22 07:42:54;;;;;;;6.18;3.80;;;;;;;4.05;100.00;96570.50;4990564;28;20073;-64
2022/02/22 07:45:23;;;;;;;7.15;3.55;;;;;;;4.03;100.00;96566.34;4990911;28;20084;-61
2022/02/22 07:47:53;;;;;;;5.15;3.55;;;;;;;4.15;100.00;96586.38;4989452;28;20046;-64
2022/02/22 07:50:21;;;;;;;7.55;3.67;;;;;;;4.16;100.00;96589.81;4995199;28;20077;-62
2022/02/22 07:52:50;;;;;;;5.88;3.30;;;;;;;4.31;100.00;96591.41;4999684;28;20065;-63
2022/02/22 07:55:20;;;;;;;6.43;3.60;;;;;;;4.46;100.00;96598.22;4996019;28;20551;-64
2022/02/22 07:57:48;;;;;;;7.50;3.85;;;;;;;4.27;100.00;96613.47;4988690;28;20073;-63
2022/02/22 08:00:17;;;;;;;8.13;3.50;;;;;;;4.33;100.00;96605.19;5003053;28;20078;-63
2022/02/22 08:02:58;;;;;;;4.55;3.45;;;;;;;4.48;100.00;96612.00;4993146;28;20062;-62
2022/02/22 08:05:27;;;;;;;3.87;3.50;;;;;;;4.63;100.00;96620.56;4991129;28;20082;-64
2022/02/22 08:07:55;;;;;;;3.90;3.40;;;;;;;4.88;100.00;96626.72;4993303;28;20497;-64
2022/02/22 08:10:25;;;;;;;6.97;3.67;;;;;;;4.91;100.00;96622.13;4977560;28;20086;-63
2022/02/22 08:12:53;;;;;;;7.68;3.47;;;;;;;5.02;100.00;96638.84;4980682;28;20077;-63
2022/02/22 08:15:22;;;;;;;10.00;3.78;;;;;;;5.17;100.00;96637.81;4988728;28;20081;-61
2022/02/22 08:17:53;;;;;;;7.72;3.70;;;;;;;5.39;100.00;96643.19;4996397;28;20053;-62
2022/02/22 08:20:23;;;;;;;9.45;3.83;;;;;;;5.52;100.00;96645.78;4996020;28;20081;-65
2022/02/22 08:22:53;;;;;;;8.68;3.40;;;;;;;5.39;100.00;96635.34;4997128;28;20078;-62
2022/02/22 08:25:22;;;;;;;12.10;3.35;;;;;;;5.80;100.00;96636.78;4993969;28;20078;-62
2022/02/22 08:27:51;;;;;;;7.00;3.75;;;;;;;5.77;100.00;96655.31;4991294;28;20069;-62
2022/02/22 08:30:20;;;;;;;8.75;3.45;;;;;;;5.74;100.00;96668.63;4989407;28;20496;-60
2022/02/22 08:32:48;;;;;;;7.85;3.45;;;;;;;5.70;100.00;96643.63;4986659;28;20077;-58
2022/02/22 08:35:17;;;;;;;12.45;3.80;;;;;;;5.75;100.00;96677.28;4971496;28;20086;-57
2022/02/22 08:37:50;;;;;;;7.90;3.10;;;;;;;6.03;100.00;96665.72;4967693;28;20473;-55
2022/02/22 08:40:18;;;;;;;7.95;3.28;;;;;;;6.22;100.00;96668.66;4990369;28;20468;-62
2022/02/22 08:42:47;;;;;;;4.20;2.80;;;;;;;6.51;100.00;96684.03;4987981;28;20072;-60
2022/02/22 08:45:24;;;;;;;3.13;2.80;;;;;;;6.30;100.00;96704.78;4993690;28;20084;-56
2022/02/22 08:47:54;;;;;;;4.10;2.85;;;;;;;6.10;100.00;96699.19;4993934;28;20073;-60
2022/02/22 08:50:23;;;;;;;9.48;3.17;;;;;;;6.38;100.00;96699.81;4982424;28;20090;-60
2022/02/22 08:52:53;;;;;;;4.80;3.10;;;;;;;6.22;100.00;96694.00;4989768;28;20082;-59
2022/02/22 08:55:22;;;;;;;3.47;3.15;;;;;;;6.02;100.00;96713.78;4995373;28;20065;-60
2022/02/22 08:57:51;;;;;;;6.30;3.25;;;;;;;6.40;100.00;96704.00;4986551;28;20121;-55
2022/02/22 09:00:19;;;;;;;6.35;3.10;;;;;;;6.45;100.00;96692.34;4989675;28;20714;-60
2022/02/22 09:02:53;;;;;;;3.53;2.92;;;;;;;6.61;100.00;96706.81;4997779;28;20062;-61
2022/02/22 09:05:37;;;;;;;3.42;2.85;;;;;;;6.42;100.00;96696.00;4994843;28;20041;-58
2022/02/22 09:08:07;;;;;;;9.80;3.63;;;;;;;6.58;100.00;96708.81;4994668;28;20046;-58
2022/02/22 09:10:37;;;;;;;4.47;2.45;;;;;;;6.97;100.00;96720.72;4980856;28;20073;-62
2022/02/22 09:13:06;;;;;;;7.78;2.97;;;;;;;7.05;100.00;96715.72;4992790;28;20069;-54
2022/02/22 09:15:35;;;;;;;3.22;2.70;;;;;;;6.90;100.00;96722.97;4991437;28;20081;-62
2022/02/22 09:18:07;;;;;;;5.05;2.67;;;;;;;7.09;100.00;96721.59;4983918;28;20068;-61
2022/02/22 09:20:35;;;;;;;3.50;2.53;;;;;;;6.96;100.00;96721.69;4964990;28;20097;-59
2022/02/22 09:23:04;;;;;;;4.60;3.10;;;;;;;6.89;100.00;96736.19;4990895;28;20073;-61
2022/02/22 09:25:35;;;;;;;8.05;3.05;;;;;;;6.98;100.00;96721.53;4985382;28;20472;-63
2022/02/22 09:28:04;;;;;;;;;;;;;;;6.58;100.00;96729.78;4968742;28;20517;-58
2022/02/22 09:30:34;;;;;;;4.78;3.17;;;;;;;6.70;100.00;96728.03;4966881;28;19961;-60
2022/02/22 09:33:03;;;;;;;8.67;3.07;;;;;;;6.85;100.00;96738.22;4967450;28;20506;-60
2022/02/22 09:35:32;;;;;;;5.43;2.90;;;;;;;6.81;100.00;96749.88;4966620;28;20092;-57
2022/02/22 09:38:00;;;;;;;7.68;3.10;;;;;;;6.96;100.00;96739.19;4987023;28;20446;-60
2022/02/22 09:40:30;;;;;;;5.80;3.00;;;;;;;6.89;100.00;96729.16;4970192;28;20073;-59
2022/02/22 09:43:01;;;;;;;5.13;2.92;;;;;;;6.83;100.00;96753.22;4966163;28;20062;-61
2022/02/22 09:45:30;;;;;;;5.40;2.70;;;;;;;6.79;100.00;96753.56;4962123;28;20078;-58
2022/02/22 09:48:01;;;;;;;5.03;3.13;;;;;;;6.89;100.00;96758.00;4967172;28;20078;-61
2022/02/22 09:50:32;;;;;;;4.47;2.78;;;;;;;6.71;100.00;96738.41;4964679;28;20093;-61
2022/02/22 09:53:00;;;;;;;5.60;3.00;;;;;;;6.99;100.00;96728.47;4985711;28;20069;-61
2022/02/22 09:55:29;;;;;;;4.95;2.55;;;;;;;7.13;100.00;96760.56;4966277;28;20062;-61
2022/02/22 09:57:58;;;;;;;10.63;2.92;;;;;;;7.02;100.00;96750.06;4968294;28;20450;-60
2022/02/22 10:00:31;;;;;;;2.88;2.58;;;;;;;6.94;100.00;96762.88;4965865;28;20078;-61
2022/02/22 10:03:15;;;;;;;6.03;3.30;;;;;;;6.59;100.00;96779.44;4965021;28;20453;-61
2022/02/22 10:05:52;;;;;;;4.03;2.85;;;;;;;6.62;100.00;96762.66;4961347;28;20066;-62
2022/02/22 10:08:25;;;;;;;8.65;3.03;;;;;;;6.74;100.00;96764.38;4967653;28;20086;-61
2022/02/22 10:11:01;;;;;;;3.47;2.92;;;;;;;7.28;100.00;96762.97;4973075;28;20117;-62
2022/02/22 10:13:30;;;;;;;4.18;2.72;;;;;;;6.97;100.00;96767.06;4962788;28;20088;-57
2022/02/22 10:16:05;;;;;;;8.95;3.67;;;;;;;7.73;100.00;96779.59;4962284;28;20545;-60
2022/02/22 10:18:34;;;;;;;6.32;2.65;;;;;;;7.35;100.00;96770.25;4968806;28;20085;-62
2022/02/22 10:21:02;;;;;;;6.22;2.33;;;;;;;7.30;100.00;96789.94;4963984;28;20505;-63
2022/02/22 10:23:32;;;;;;;8.25;2.80;;;;;;;7.32;100.00;96777.53;4964942;28;20086;-61
2022/02/22 10:26:01;;;;;;;4.35;2.38;;;;;;;7.55;100.00;96794.97;4975198;28;20097;-61
2022/02/22 10:28:29;;;;;;;6.03;2.63;;;;;;;7.44;100.00;96802.00;4969188;28;20549;-56
2022/02/22 10:30:59;;;;;;;4.82;2.30;;;;;;;7.30;100.00;96809.13;4973860;28;20129;-57
2022/02/22 10:33:33;;;;;;;7.65;2.95;;;;;;;7.35;100.00;96814.03;4966155;28;20059;-60
2022/02/22 10:36:22;;;;;;;7.15;2.58;;;;;;;7.63;100.00;96822.41;4967126;28;20074;-57
2022/02/22 10:38:50;;;;;;;4.60;2.60;;;;;;;7.46;100.00;96819.28;4974077;28;20074;-59
2022/02/22 10:41:25;;;;;;;4.70;2.20;;;;;;;7.50;100.00;96820.75;4969840;28;20086;-57
2022/02/22 10:43:57;;;;;;;3.90;2.83;;;;;;;7.55;100.00;96820.38;4970782;28;20078;-60
2022/02/22 10:46:32;;;;;;;3.78;2.60;;;;;;;7.31;100.00;96821.28;5000674;28;20555;-59
2022/02/22 10:49:03;;;;;;;7.15;2.83;;;;;;;7.61;100.00;96827.81;4995811;28;20054;-57
2022/02/22 10:51:35;;;;;;;6.70;2.80;;;;;;;7.60;100.00;96815.59;4992510;28;20035;-61
2022/02/22 10:54:04;;;;;;;6.72;2.63;;;;;;;7.37;100.00;96789.34;4997399;28;20077;-60
2022/02/22 10:56:33;;;;;;;4.65;2.50;;;;;;;7.50;100.00;96823.38;5004585;28;20089;-61
2022/02/22 10:59:03;;;;;;;5.55;2.58;;;;;;;7.45;100.00;96808.91;4993480;28;20088;-62
2022/02/22 11:01:36;;;;;;;5.63;2.70;;;;;;;7.29;100.00;96814.47;4995432;28;20070;-59
2022/02/22 11:04:06;;;;;;;3.78;2.45;;;;;;;7.72;100.00;96817.31;4999535;28;20451;-61
2022/02/22 11:06:35;;;;;;;7.55;3.40;;;;;;;7.76;100.00;96815.28;4998632;28;20066;-58
2022/02/22 11:09:07;;;;;;;5.75;2.70;;;;;;;7.96;100.00;96816.38;4993382;28;20070;-58
2022/02/22 11:11:50;;;;;;;5.45;2.58;;;;;;;8.07;100.00;96806.69;4999110;28;20078;-61
2022/02/22 11:14:24;;;;;;;5.60;2.10;;;;;;;8.66;100.00;96805.53;4994215;28;20481;-59
2022/02/22 11:16:56;;;;;;;6.38;2.22;;;;;;;8.53;100.00;96804.84;4972189;28;20105;-60
2022/02/22 11:19:27;;;;;;;5.18;2.25;;;;;;;8.51;100.00;96809.41;4975802;28;20529;-59
2022/02/22 11:21:57;;;;;;;3.15;2.40;;;;;;;8.72;100.00;96807.66;4971180;28;20614;-59
2022/02/22 11:24:25;;;;;;;12.02;2.47;;;;;;;9.12;100.00;96800.91;4971844;28;20066;-58
2022/02/22 11:26:57;;;;;;;4.15;2.22;;;;;;;8.99;100.00;96803.75;4972236;28;20708;-63
2022/02/22 11:29:27;;;;;;;4.40;2.30;;;;;;;8.91;100.00;96798.25;4968650;28;20484;-58
2022/02/22 11:32:03;;;;;;;3.45;2.10;;;;;;;8.54;100.00;96799.47;4974290;28;20094;-59
2022/02/22 11:34:34;;;;;;;6.32;2.40;;;;;;;8.60;100.00;96802.56;4991232;28;20066;-60
2022/02/22 11:37:05;;;;;;;4.82;2.05;;;;;;;8.63;100.00;96795.25;4972757;28;20070;-63
2022/02/22 11:39:43;;;;;;;4.32;2.28;;;;;;;8.56;100.00;96801.97;4965723;28;20081;-61
2022/02/22 11:42:19;;;;;;;16.42;2.70;;;;;;;8.46;100.00;96808.91;4978067;28;20065;-62
2022/02/22 11:44:58;;;;;;;6.95;2.40;;;;;;;8.83;100.00;96793.63;4987053;28;20066;-60
2022/02/22 11:47:28;;;;;;;4.78;2.13;;;;;;;8.86;100.00;96797.81;4972962;28;20105;-60